createdAt,value
2023-12-04T00:01:22.217Z,4.24
2023-12-04T00:04:07.342Z,3.99
2023-12-04T00:06:52.841Z,3.98
2023-12-04T00:09:38.337Z,4.13
2023-12-04T00:12:23.591Z,3.95
2023-12-04T00:15:08.772Z,4.03
2023-12-04T00:17:53.896Z,3.95
2023-12-04T00:20:39.188Z,4.16
2023-12-04T00:23:24.189Z,4.03
2023-12-04T00:26:09.565Z,3.89
2023-12-04T00:28:54.918Z,4.04
2023-12-04T00:31:40.189Z,4.00
2023-12-04T00:34:25.258Z,3.87
2023-12-04T00:37:10.709Z,3.80
2023-12-04T00:39:56.305Z,3.91
2023-12-04T00:42:41.882Z,3.85
2023-12-04T00:45:27.186Z,3.82
2023-12-04T00:48:12.685Z,3.83
2023-12-04T00:50:58.131Z,3.81
2023-12-04T00:53:43.027Z,3.99
2023-12-04T00:56:28.117Z,3.77
2023-12-04T00:59:13.564Z,3.75
2023-12-04T01:01:58.858Z,3.96
2023-12-04T01:04:44.033Z,3.73
2023-12-04T01:07:29.509Z,3.78
2023-12-04T01:10:14.557Z,3.56
2023-12-04T01:12:59.938Z,3.78
2023-12-04T01:15:45.392Z,3.50
2023-12-04T01:18:30.388Z,3.63
2023-12-04T01:21:15.483Z,3.71
2023-12-04T01:24:00.921Z,3.64
2023-12-04T01:26:45.819Z,3.73
2023-12-04T01:29:30.954Z,3.65
2023-12-04T01:32:16.286Z,3.87
2023-12-04T01:35:01.105Z,3.70
2023-12-04T01:37:46.374Z,3.67
2023-12-04T01:40:31.428Z,3.72
2023-12-04T01:43:16.383Z,3.58
2023-12-04T01:46:01.386Z,3.62
2023-12-04T01:48:47.020Z,3.66
2023-12-04T01:51:32.063Z,3.49
2023-12-04T01:54:18.158Z,3.60
2023-12-04T01:57:02.953Z,3.61
2023-12-04T01:59:47.873Z,3.73
2023-12-04T02:02:32.914Z,3.80
2023-12-04T02:05:18.975Z,3.53
2023-12-04T02:08:04.255Z,3.43
2023-12-04T02:10:49.342Z,3.56
2023-12-04T02:13:34.950Z,3.36
2023-12-04T02:16:20.373Z,3.48
2023-12-04T02:19:05.393Z,3.42
2023-12-04T02:21:50.861Z,3.49
2023-12-04T02:24:36.213Z,3.38
2023-12-04T02:27:21.339Z,3.56
2023-12-04T02:30:06.271Z,3.46
2023-12-04T02:32:51.228Z,3.61
2023-12-04T02:35:36.305Z,3.28
2023-12-04T02:38:21.739Z,3.25
2023-12-04T02:41:06.942Z,3.30
2023-12-04T02:43:51.846Z,3.43
2023-12-04T02:46:36.803Z,3.38
2023-12-04T02:49:21.795Z,3.23
2023-12-04T02:52:07.355Z,3.34
2023-12-04T02:54:52.917Z,3.27
2023-12-04T02:57:38.432Z,3.20
2023-12-04T03:00:23.633Z,3.21
2023-12-04T03:03:08.531Z,3.18
2023-12-04T03:05:54.012Z,3.30
2023-12-04T03:08:39.381Z,3.33
2023-12-04T03:11:24.470Z,3.15
2023-12-04T03:14:10.470Z,3.12
2023-12-04T03:16:55.572Z,3.28
2023-12-04T03:19:40.616Z,3.26
2023-12-04T03:22:25.826Z,3.08
2023-12-04T03:25:10.838Z,3.41
2023-12-04T03:27:56.203Z,3.36
2023-12-04T03:30:41.731Z,3.36
2023-12-04T03:33:27.033Z,2.97
2023-12-04T03:36:12.464Z,3.45
2023-12-04T03:38:57.435Z,3.35
2023-12-04T03:41:42.369Z,3.18
2023-12-04T03:44:27.449Z,3.20
2023-12-04T03:47:13.177Z,3.24
2023-12-04T03:49:58.174Z,3.13
2023-12-04T03:52:43.523Z,3.32
2023-12-04T03:55:28.511Z,3.29
2023-12-04T03:58:13.559Z,3.20
2023-12-04T04:00:58.962Z,3.35
2023-12-04T04:03:44.014Z,2.97
2023-12-04T04:06:31.455Z,3.04
2023-12-04T04:09:16.775Z,2.93
2023-12-04T04:12:01.822Z,3.25
2023-12-04T04:14:47.229Z,3.00
2023-12-04T04:17:32.920Z,2.94
2023-12-04T04:20:19.436Z,3.27
2023-12-04T04:23:04.567Z,3.25
2023-12-04T04:25:49.697Z,3.08
2023-12-04T04:28:34.659Z,3.03
2023-12-04T04:31:19.682Z,3.00
2023-12-04T04:34:05.273Z,3.06
2023-12-04T04:36:50.687Z,3.08
2023-12-04T04:39:36.178Z,3.00
2023-12-04T04:42:21.569Z,3.08
2023-12-04T04:45:06.707Z,2.97
2023-12-04T04:47:51.919Z,2.73
2023-12-04T04:50:37.323Z,3.21
2023-12-04T04:53:22.346Z,2.93
2023-12-04T04:56:07.824Z,3.01
2023-12-04T04:58:53.534Z,2.96
2023-12-04T05:01:38.993Z,2.89
2023-12-04T05:04:24.522Z,3.17
2023-12-04T05:07:09.920Z,3.11
2023-12-04T05:09:55.385Z,2.87
2023-12-04T05:12:40.667Z,3.14
2023-12-04T05:15:25.739Z,2.82
2023-12-04T05:18:11.379Z,2.91
2023-12-04T05:20:56.780Z,2.97
2023-12-04T05:23:41.718Z,3.08
2023-12-04T05:26:26.695Z,2.89
2023-12-04T05:29:11.948Z,3.05
2023-12-04T05:31:57.270Z,3.14
2023-12-04T05:34:42.226Z,2.94
2023-12-04T05:37:27.256Z,2.88
2023-12-04T05:40:12.189Z,3.18
2023-12-04T05:42:57.749Z,2.99
2023-12-04T05:45:42.901Z,2.96
2023-12-04T05:48:28.222Z,2.90
2023-12-04T05:51:13.150Z,3.08
2023-12-04T05:53:57.997Z,3.03
2023-12-04T05:56:43.169Z,2.99
2023-12-04T05:59:28.396Z,2.86
2023-12-04T06:02:13.496Z,2.79
2023-12-04T06:04:58.812Z,2.76
2023-12-04T06:07:44.146Z,3.39
2023-12-04T06:10:29.082Z,3.97
2023-12-04T06:13:14.022Z,3.77
2023-12-04T06:15:59.205Z,4.06
2023-12-04T06:18:44.362Z,4.07
2023-12-04T06:21:29.711Z,4.01
2023-12-04T06:24:14.580Z,4.29
2023-12-04T06:26:59.470Z,4.40
2023-12-04T06:29:44.336Z,4.42
2023-12-04T06:32:29.612Z,4.42
2023-12-04T06:35:16.229Z,4.40
2023-12-04T06:38:03.574Z,4.00
2023-12-04T06:40:48.510Z,4.17
2023-12-04T06:43:33.713Z,4.28
2023-12-04T06:46:18.804Z,4.38
2023-12-04T06:49:03.879Z,4.56
2023-12-04T06:51:49.317Z,4.43
2023-12-04T06:54:34.772Z,4.23
2023-12-04T06:57:20.108Z,4.01
2023-12-04T07:00:20.747Z,4.01
2023-12-04T07:03:11.695Z,3.97
2023-12-04T07:05:57.230Z,4.08
2023-12-04T07:08:42.149Z,3.71
2023-12-04T07:11:27.135Z,3.61
2023-12-04T07:14:12.271Z,3.71
2023-12-04T07:16:57.827Z,3.76
2023-12-04T07:19:42.756Z,3.68
2023-12-04T07:22:28.175Z,3.57
2023-12-04T07:25:13.555Z,3.94
2023-12-04T07:27:58.947Z,3.74
2023-12-04T07:30:44.458Z,3.94
2023-12-04T07:33:29.892Z,3.92
2023-12-04T07:36:15.340Z,3.64
2023-12-04T07:39:00.431Z,3.55
2023-12-04T07:41:45.916Z,3.59
2023-12-04T07:44:30.946Z,3.77
2023-12-04T07:47:16.004Z,3.66
2023-12-04T07:50:01.218Z,3.64
2023-12-04T07:52:46.621Z,3.77
2023-12-04T07:55:31.575Z,3.77
2023-12-04T07:58:16.772Z,3.56
2023-12-04T08:01:02.229Z,3.70
2023-12-04T08:03:47.870Z,4.11
2023-12-04T08:06:33.335Z,4.10
2023-12-04T08:09:18.612Z,4.10
2023-12-04T08:12:03.558Z,4.12
2023-12-04T08:14:48.965Z,4.40
2023-12-04T08:17:33.949Z,4.44
2023-12-04T08:20:24.911Z,4.27
2023-12-04T08:23:16.148Z,4.55
2023-12-04T08:26:02.253Z,4.91
2023-12-04T08:28:47.239Z,4.59
2023-12-04T08:31:32.120Z,4.53
2023-12-04T08:34:17.220Z,4.67
2023-12-04T08:37:02.829Z,4.91
2023-12-04T08:39:48.345Z,4.15
2023-12-04T08:42:33.879Z,4.50
2023-12-04T08:45:20.057Z,4.43
2023-12-04T08:48:05.410Z,5.03
2023-12-04T08:50:50.929Z,9.44
2023-12-04T08:53:35.892Z,11.35
2023-12-04T08:56:26.011Z,12.10
2023-12-04T08:59:16.524Z,13.21
2023-12-04T09:04:49.757Z,15.03
2023-12-04T09:10:31.444Z,11.08
2023-12-04T09:13:28.265Z,9.84
2023-12-04T09:16:13.232Z,10.22
2023-12-04T09:18:58.846Z,9.71
2023-12-04T09:21:43.845Z,9.73
2023-12-04T09:24:28.827Z,9.05
2023-12-04T09:27:14.008Z,9.36
2023-12-04T09:29:58.865Z,9.12
2023-12-04T09:32:43.827Z,9.47
2023-12-04T09:35:29.062Z,8.84
2023-12-04T09:38:14.247Z,9.33
2023-12-04T09:40:59.647Z,8.74
2023-12-04T09:43:44.653Z,8.53
2023-12-04T09:46:29.728Z,8.30
2023-12-04T09:49:15.608Z,8.61
2023-12-04T09:52:01.281Z,8.55
2023-12-04T09:54:46.657Z,8.31
2023-12-04T09:57:31.902Z,7.90
2023-12-04T10:00:17.793Z,8.28
2023-12-04T10:03:03.247Z,7.89
2023-12-04T10:05:48.471Z,8.07
2023-12-04T10:08:33.551Z,7.73
2023-12-04T10:11:18.831Z,7.58
2023-12-04T10:14:04.053Z,7.98
2023-12-04T10:16:52.219Z,7.58
2023-12-04T10:19:37.412Z,7.71
2023-12-04T10:22:22.834Z,8.12
2023-12-04T10:25:07.811Z,8.13
2023-12-04T10:27:52.961Z,7.86
2023-12-04T10:30:37.981Z,7.34
2023-12-04T10:33:23.449Z,8.07
2023-12-04T10:36:08.829Z,7.98
2023-12-04T10:38:54.203Z,7.73
2023-12-04T10:41:39.005Z,8.18
2023-12-04T10:44:24.113Z,7.90
2023-12-04T10:47:09.050Z,7.76
2023-12-04T10:49:54.187Z,7.28
2023-12-04T10:52:39.421Z,7.48
2023-12-04T10:55:24.468Z,8.52
2023-12-04T10:58:09.368Z,9.56
2023-12-04T11:00:54.396Z,10.45
2023-12-04T11:03:39.959Z,10.99
2023-12-04T11:06:25.303Z,10.50
2023-12-04T11:09:10.839Z,10.98
2023-12-04T11:11:55.982Z,10.35
2023-12-04T11:14:41.460Z,10.02
2023-12-04T11:17:26.961Z,10.99
2023-12-04T11:20:12.450Z,11.88
2023-12-04T11:22:57.857Z,16.08
2023-12-04T11:25:42.712Z,18.40
2023-12-04T11:28:27.706Z,20.88
2023-12-04T11:31:12.855Z,19.28
2023-12-04T11:33:57.990Z,19.46
2023-12-04T11:36:43.063Z,20.23
2023-12-04T11:39:28.378Z,19.62
2023-12-04T11:42:14.027Z,19.37
2023-12-04T11:44:59.456Z,19.62
2023-12-04T11:47:44.490Z,18.44
2023-12-04T11:50:29.569Z,14.38
2023-12-04T11:53:14.478Z,13.33
2023-12-04T11:55:59.394Z,12.32
2023-12-04T11:58:44.825Z,11.63
2023-12-04T12:01:29.766Z,11.67
2023-12-04T12:04:15.311Z,11.71
2023-12-04T12:07:00.762Z,11.25
2023-12-04T12:09:46.693Z,10.65
2023-12-04T12:12:32.303Z,10.53
2023-12-04T12:15:17.235Z,10.03
2023-12-04T12:18:02.207Z,10.03
2023-12-04T12:20:47.646Z,9.45
2023-12-04T12:23:33.062Z,8.99
2023-12-04T12:26:18.470Z,8.83
2023-12-04T12:29:03.589Z,8.75
2023-12-04T12:31:48.760Z,8.04
2023-12-04T12:34:34.152Z,7.86
2023-12-04T12:37:19.586Z,7.36
2023-12-04T12:40:04.715Z,7.22
2023-12-04T12:42:50.306Z,7.26
2023-12-04T12:45:35.618Z,6.73
2023-12-04T12:48:20.637Z,6.66
2023-12-04T12:51:06.059Z,6.30
2023-12-04T12:53:52.620Z,6.39
2023-12-04T12:56:37.963Z,6.10
2023-12-04T12:59:23.247Z,6.16
2023-12-04T13:02:08.333Z,5.77
2023-12-04T13:04:53.538Z,6.24
2023-12-04T13:07:39.093Z,6.07
2023-12-04T13:10:24.456Z,5.48
2023-12-04T13:13:10.254Z,5.59
2023-12-04T13:15:55.745Z,5.27
2023-12-04T13:18:40.996Z,5.50
2023-12-04T13:21:26.449Z,5.48
2023-12-04T13:24:11.622Z,5.27
2023-12-04T13:26:56.525Z,5.33
2023-12-04T13:29:42.444Z,4.91
2023-12-04T13:32:27.886Z,5.24
2023-12-04T13:35:13.541Z,5.14
2023-12-04T13:37:58.773Z,5.17
2023-12-04T13:40:43.731Z,4.96
2023-12-04T13:43:29.087Z,5.10
2023-12-04T13:46:14.516Z,5.14
2023-12-04T13:48:59.909Z,4.94
2023-12-04T13:51:45.682Z,4.83
2023-12-04T13:54:31.095Z,4.99
2023-12-04T13:57:16.315Z,4.98
2023-12-04T14:00:01.919Z,4.83
2023-12-04T14:02:47.356Z,4.85
2023-12-04T14:05:33.105Z,5.07
2023-12-04T14:08:18.896Z,4.84
2023-12-04T14:11:04.124Z,5.16
2023-12-04T14:13:49.551Z,4.54
2023-12-04T14:16:34.717Z,4.70
2023-12-04T14:19:20.284Z,4.78
2023-12-04T14:22:05.854Z,4.46
2023-12-04T14:24:51.250Z,4.40
2023-12-04T14:27:36.104Z,4.56
2023-12-04T14:30:20.911Z,4.73
2023-12-04T14:33:06.155Z,4.68
2023-12-04T14:35:51.527Z,4.48
2023-12-04T14:38:36.489Z,4.50
2023-12-04T14:41:21.341Z,4.42
2023-12-04T14:44:06.148Z,4.50
2023-12-04T14:46:52.088Z,4.74
2023-12-04T14:49:37.418Z,4.65
2023-12-04T14:52:22.818Z,4.69
2023-12-04T14:55:08.316Z,4.58
2023-12-04T14:57:53.718Z,5.00
2023-12-04T15:00:39.834Z,4.97
2023-12-04T15:03:24.912Z,4.60
2023-12-04T15:06:10.064Z,4.68
2023-12-04T15:08:55.508Z,4.99
2023-12-04T15:11:41.353Z,4.77
2023-12-04T15:14:26.757Z,4.71
2023-12-04T15:17:11.743Z,5.06
2023-12-04T15:19:56.631Z,4.73
2023-12-04T15:22:41.985Z,4.76
2023-12-04T15:25:26.936Z,4.68
2023-12-04T15:28:11.944Z,4.61
2023-12-04T15:30:57.185Z,4.50
2023-12-04T15:33:42.777Z,4.36
2023-12-04T15:36:28.093Z,4.77
2023-12-04T15:39:13.538Z,4.76
2023-12-04T15:41:58.801Z,4.26
2023-12-04T15:44:44.613Z,4.64
2023-12-04T15:47:29.900Z,4.52
2023-12-04T15:50:15.064Z,4.53
2023-12-04T15:53:00.918Z,4.91
2023-12-04T15:55:46.375Z,4.52
2023-12-04T15:58:31.486Z,4.33
2023-12-04T16:01:16.449Z,4.40
2023-12-04T16:04:01.907Z,4.51
2023-12-04T16:06:47.442Z,4.37
2023-12-04T16:09:32.776Z,4.33
2023-12-04T16:12:18.309Z,4.05
2023-12-04T16:15:03.887Z,4.31
2023-12-04T16:17:49.184Z,4.25
2023-12-04T16:20:34.412Z,4.27
2023-12-04T16:23:19.863Z,4.43
2023-12-04T16:26:04.830Z,4.34
2023-12-04T16:28:49.806Z,4.18
2023-12-04T16:31:34.753Z,4.55
2023-12-04T16:34:22.845Z,4.21
2023-12-04T16:37:07.898Z,4.38
2023-12-04T16:39:52.761Z,4.24
2023-12-04T16:42:37.631Z,4.35
2023-12-04T16:45:23.140Z,4.14
2023-12-04T16:48:08.155Z,4.36
2023-12-04T16:50:53.388Z,4.08
2023-12-04T16:53:38.243Z,4.26
2023-12-04T16:56:23.369Z,4.79
2023-12-04T16:59:08.381Z,4.25
2023-12-04T17:01:53.313Z,4.55
2023-12-04T17:04:39.047Z,4.65
2023-12-04T17:07:24.474Z,4.70
2023-12-04T17:10:09.682Z,4.95
2023-12-04T17:12:54.704Z,4.58
2023-12-04T17:15:39.649Z,4.73
2023-12-04T17:18:24.697Z,5.03
2023-12-04T17:21:09.869Z,4.97
2023-12-04T17:23:55.176Z,5.40
2023-12-04T17:26:40.386Z,5.90
2023-12-04T17:29:26.361Z,5.77
2023-12-04T17:32:12.175Z,6.08
2023-12-04T17:34:57.085Z,6.19
2023-12-04T17:37:42.445Z,5.99
2023-12-04T17:40:27.840Z,5.62
2023-12-04T17:43:12.770Z,5.65
2023-12-04T17:45:57.691Z,5.58
2023-12-04T17:48:43.104Z,5.55
2023-12-04T17:51:28.811Z,5.79
2023-12-04T17:54:14.366Z,5.69
2023-12-04T17:56:59.304Z,5.26
2023-12-04T17:59:44.439Z,5.66
2023-12-04T18:02:29.762Z,5.33
2023-12-04T18:05:14.881Z,5.34
2023-12-04T18:07:59.915Z,5.14
2023-12-04T18:10:45.489Z,5.26
2023-12-04T18:13:30.942Z,5.22
2023-12-04T18:16:15.960Z,5.31
2023-12-04T18:19:00.901Z,5.49
2023-12-04T18:21:46.000Z,5.07
2023-12-04T18:24:31.385Z,5.14
2023-12-04T18:27:16.760Z,5.44
2023-12-04T18:30:01.993Z,5.29
2023-12-04T18:32:47.192Z,5.34
2023-12-04T18:35:32.695Z,5.12
2023-12-04T18:38:17.853Z,5.59
2023-12-04T18:41:02.655Z,5.57
2023-12-04T18:43:47.770Z,5.45
2023-12-04T18:46:32.689Z,5.35
2023-12-04T18:49:17.793Z,5.18
2023-12-04T18:52:03.020Z,5.19
2023-12-04T18:54:48.303Z,5.31
2023-12-04T18:57:33.710Z,5.19
2023-12-04T19:00:18.931Z,4.86
2023-12-04T19:03:04.377Z,5.10
2023-12-04T19:05:49.945Z,5.53
2023-12-04T19:08:35.251Z,5.40
2023-12-04T19:11:20.383Z,5.35
2023-12-04T19:14:05.538Z,5.51
2023-12-04T19:16:51.099Z,5.25
2023-12-04T19:19:36.644Z,5.09
2023-12-04T19:22:22.087Z,5.14
2023-12-04T19:25:06.960Z,5.21
2023-12-04T19:27:52.081Z,5.36
2023-12-04T19:30:37.380Z,4.93
2023-12-04T19:33:26.136Z,5.38
2023-12-04T19:36:15.796Z,5.60
2023-12-04T19:39:00.787Z,5.66
2023-12-04T19:41:46.171Z,6.13
2023-12-04T19:44:31.380Z,5.76
2023-12-04T19:47:16.511Z,6.24
2023-12-04T19:50:01.430Z,6.80
2023-12-04T19:52:46.781Z,7.24
2023-12-04T19:55:31.628Z,7.52
2023-12-04T19:58:16.416Z,7.85
2023-12-04T20:01:01.627Z,7.57
2023-12-04T20:03:46.551Z,7.27
2023-12-04T20:06:31.670Z,6.99
2023-12-04T20:09:16.913Z,6.75
2023-12-04T20:12:02.054Z,6.95
2023-12-04T20:14:47.287Z,7.09
2023-12-04T20:17:32.564Z,6.58
2023-12-04T20:20:17.823Z,6.88
2023-12-04T20:23:02.619Z,6.60
2023-12-04T20:25:47.458Z,6.46
2023-12-04T20:28:32.443Z,6.42
2023-12-04T20:31:17.741Z,6.63
2023-12-04T20:34:02.728Z,6.50
2023-12-04T20:36:48.180Z,6.95
2023-12-04T20:39:33.184Z,6.80
2023-12-04T20:42:18.796Z,6.27
2023-12-04T20:45:04.044Z,6.37
2023-12-04T20:47:49.271Z,6.02
2023-12-04T20:50:34.788Z,6.29
2023-12-04T20:53:20.262Z,6.29
2023-12-04T20:56:05.940Z,6.55
2023-12-04T20:58:50.813Z,6.67
2023-12-04T21:01:35.759Z,5.98
2023-12-04T21:04:20.974Z,6.14
2023-12-04T21:07:06.622Z,5.99
2023-12-04T21:09:52.054Z,5.89
2023-12-04T21:12:37.590Z,6.14
2023-12-04T21:15:22.587Z,5.96
2023-12-04T21:18:07.740Z,6.17
2023-12-04T21:20:53.096Z,5.91
2023-12-04T21:23:38.052Z,5.66
2023-12-04T21:26:23.383Z,5.88
2023-12-04T21:29:08.166Z,5.61
2023-12-04T21:31:53.090Z,5.61
2023-12-04T21:34:38.178Z,5.78
2023-12-04T21:37:23.085Z,5.67
2023-12-04T21:40:08.053Z,5.39
2023-12-04T21:42:52.804Z,5.59
2023-12-04T21:45:37.556Z,5.36
2023-12-04T21:48:23.015Z,5.40
2023-12-04T21:51:08.428Z,5.35
2023-12-04T21:53:53.588Z,5.31
2023-12-04T21:56:38.453Z,5.54
2023-12-04T21:59:29.346Z,4.90
2023-12-04T22:02:15.553Z,5.04
2023-12-04T22:05:00.531Z,4.90
2023-12-04T22:07:45.794Z,4.60
2023-12-04T22:10:30.610Z,4.86
2023-12-04T22:13:16.223Z,4.79
2023-12-04T22:16:01.377Z,5.08
2023-12-04T22:18:46.745Z,4.95
2023-12-04T22:21:32.231Z,4.91
2023-12-04T22:24:17.745Z,4.47
2023-12-04T22:27:02.850Z,4.88
2023-12-04T22:29:47.668Z,4.57
2023-12-04T22:32:32.608Z,4.94
2023-12-04T22:35:17.999Z,4.65
2023-12-04T22:38:03.067Z,4.59
2023-12-04T22:40:48.472Z,4.57
2023-12-04T22:43:33.570Z,4.37
2023-12-04T22:46:19.014Z,4.53
2023-12-04T22:49:04.205Z,4.29
2023-12-04T22:51:49.469Z,4.27
2023-12-04T22:54:34.920Z,4.35
2023-12-04T22:57:20.338Z,4.48
2023-12-04T23:00:05.488Z,4.46
2023-12-04T23:02:50.437Z,4.37
2023-12-04T23:05:35.652Z,4.32
2023-12-04T23:08:21.117Z,4.34
2023-12-04T23:11:06.041Z,4.27
2023-12-04T23:13:51.125Z,4.25
2023-12-04T23:16:36.408Z,4.11
2023-12-04T23:19:24.541Z,4.26
2023-12-04T23:22:10.973Z,4.17
2023-12-04T23:24:55.866Z,4.35
2023-12-04T23:27:41.183Z,4.06
2023-12-04T23:30:26.550Z,4.22
2023-12-04T23:33:15.030Z,3.99
2023-12-04T23:36:00.112Z,4.16
2023-12-04T23:38:44.975Z,4.06
2023-12-04T23:41:30.162Z,4.26
2023-12-04T23:44:15.216Z,3.94
2023-12-04T23:47:00.257Z,4.19
2023-12-04T23:49:45.243Z,4.41
2023-12-04T23:52:33.661Z,3.84
2023-12-04T23:55:19.145Z,3.98
2023-12-04T23:58:04.102Z,4.15
